Sandy Lake Airport
CZSJ : now visible

Airfield :











YOU CAN JOIN US ON...

 
LOGIN :

Register | Disclaimer

   EN    FR    IT 

 









Legend :    VFR   Marginal VFR   IFR   Intensive IFR   Very Intensive IFR
Visi :
Ceiling :
>= 8 km
>= 3000ft
5 to 8 km
1000 to 3000 ft
1500m to 5 km
500 to 1000 ft
800 to 1500m
200 to 500 ft
< 800m
< 200 ft
Symbols :   Thunderstorms  Fog  Heavy snow  Heavy precipitations  Wind > 20 kt






- Airport Elevation : 951 ft
- IATA code : ZSJ


CZSJ - Sandy Lake

CURRENT METAR :
  • 071400Z AUTO 19005KT 150V240 9SM CLR 23/17 A2982 RMK SLP101 DENSITY ALT 2200FT

EXPIRED METARs :
  • 071300Z AUTO 22005KT 170V260 9SM CLR 22/17 A2983 RMK SLP104 DENSITY ALT 2000FT
  • 071200Z AUTO 22004KT 170V280 9SM CLR 20/16 A2984 RMK SLP106 DENSITY ALT 1800FT

TAF TAF CZSJ
Valid from the 07 at 10:00 until the 07 at 22:00 UTC


070938Z 0710/0722 23005KT P6SM SKC
BECMG 0712/0714 24012KT
FM071800 24012KT P6SM SCT060 RMK FCST BASED ON AUTO OBS. NXT FCST BY 071600Z
CZWG FIR / North America



MET'MAP, your aeronautical weather chart ! - Copyright ORBIFLY December 2007 - Disclaimer

ORBIFLY MET'MAP TEAM :

Programming & Development : Alexandra Zaïnal
Concept & original design : Baudouin d'Aumeries
Assistance for programming : Marc-Olivier Méhu
Technical & hardware support : Manuel Goepfert

Contact : metmap@orbifly.com




SOURCES & CREDITS :

   NOAA       Earth
Advisory